Time;durP1;ratioP1;P1;durP2;ratioP2;P2;SDS_P1;SDS_P2;PMS_P1;PMS_P2;Temp;Humidity;BMP_temperature;BMP_pressure;BME280_temperature;BME280_humidity;BME280_pressure;Samples;Min_cycle;Max_cycle;Signal;HPM_P1;HPM_P2
2024/03/26 00:00:10;;;;;;;12.23;3.72;;;;;;;7.35;92.26;99700.56;5081853;28;20114;-67
2024/03/26 00:02:57;;;;;;;13.60;4.57;;;;;;;7.35;92.18;99697.06;5096936;28;20047;-67
2024/03/26 00:05:44;;;;;;;14.98;4.10;;;;;;;7.27;92.60;99694.91;5079356;28;20597;-68
2024/03/26 00:08:31;;;;;;;11.60;4.30;;;;;;;7.25;92.88;99690.56;5092586;28;20082;-67
2024/03/26 00:11:22;;;;;;;13.55;4.45;;;;;;;7.24;92.97;99688.97;5082362;28;20052;-67
2024/03/26 00:14:09;;;;;;;13.85;3.95;;;;;;;7.23;93.09;99684.59;5095665;28;20040;-67
2024/03/26 00:16:56;;;;;;;9.63;3.65;;;;;;;7.22;94.23;99687.63;5082454;28;20063;-66
2024/03/26 00:19:43;;;;;;;13.32;3.95;;;;;;;7.26;93.69;99680.53;5070167;28;20138;-68
2024/03/26 00:22:30;;;;;;;14.88;4.10;;;;;;;7.29;91.88;99679.19;5096030;28;20510;-66
2024/03/26 00:25:17;;;;;;;14.02;4.18;;;;;;;7.26;91.83;99667.00;5094218;28;20097;-67
2024/03/26 00:28:04;;;;;;;11.93;3.80;;;;;;;7.23;91.50;99662.13;5097993;28;20055;-67
2024/03/26 00:30:51;;;;;;;12.65;3.88;;;;;;;7.20;92.34;99655.38;5081958;28;20557;-67
2024/03/26 00:33:38;;;;;;;10.20;3.88;;;;;;;7.21;91.64;99654.28;5096043;28;20044;-67
2024/03/26 00:36:25;;;;;;;11.77;3.92;;;;;;;7.19;92.39;99645.63;5096106;28;20130;-67
2024/03/26 00:39:12;;;;;;;10.65;3.95;;;;;;;7.15;91.95;99646.44;5082774;28;20126;-67
2024/03/26 00:41:59;;;;;;;15.35;4.00;;;;;;;7.14;92.62;99651.03;5096698;28;20039;-66
2024/03/26 00:44:46;;;;;;;12.65;3.95;;;;;;;7.11;90.91;99638.03;5068951;28;20074;-67
2024/03/26 00:47:33;;;;;;;13.98;4.20;;;;;;;7.15;91.59;99643.75;5081444;28;20075;-67
2024/03/26 00:50:20;;;;;;;15.75;4.60;;;;;;;7.14;91.15;99629.38;5086907;28;20048;-66
2024/03/26 00:53:07;;;;;;;12.00;4.28;;;;;;;7.13;90.94;99629.66;5083873;28;20063;-67
2024/03/26 00:55:54;;;;;;;14.23;4.43;;;;;;;7.08;90.15;99627.78;5053679;28;20039;-67
2024/03/26 00:58:41;;;;;;;15.00;4.28;;;;;;;7.06;91.32;99619.09;5083823;28;20510;-67
2024/03/26 01:01:28;;;;;;;11.02;4.00;;;;;;;7.08;91.31;99614.22;5068233;28;20039;-67
2024/03/26 01:04:15;;;;;;;11.13;4.07;;;;;;;7.11;91.03;99616.38;5061787;28;20096;-67
2024/03/26 01:07:02;;;;;;;11.13;3.75;;;;;;;7.08;89.77;99611.53;5067098;28;20392;-67
2024/03/26 01:09:49;;;;;;;10.68;3.80;;;;;;;7.04;89.58;99605.81;5091135;28;20108;-68
2024/03/26 01:12:36;;;;;;;11.10;3.97;;;;;;;7.04;89.70;99605.03;5097377;28;20128;-67
2024/03/26 01:15:23;;;;;;;10.02;3.70;;;;;;;6.96;89.81;99598.28;5074344;28;20075;-67
2024/03/26 01:18:10;;;;;;;13.48;4.18;;;;;;;6.95;89.71;99590.41;5082159;28;20039;-68
2024/03/26 01:20:57;;;;;;;9.95;3.78;;;;;;;6.93;89.69;99592.59;5095354;28;20101;-68
2024/03/26 01:23:44;;;;;;;11.63;4.55;;;;;;;6.91;89.92;99586.66;5069145;28;20090;-67
2024/03/26 01:26:31;;;;;;;13.70;4.70;;;;;;;6.93;90.35;99588.00;5095214;28;20051;-67
2024/03/26 01:29:18;;;;;;;12.70;4.18;;;;;;;6.98;89.24;99579.06;5094340;28;20074;-68
2024/03/26 01:32:06;;;;;;;12.02;4.00;;;;;;;6.96;nan;99570.38;5083709;28;20048;-66
2024/03/26 01:34:54;;;;;;;11.63;3.63;;;;;;;6.96;88.94;99575.81;5095983;28;20048;-67
2024/03/26 01:37:41;;;;;;;11.43;4.20;;;;;;;6.92;89.34;99563.88;5096419;28;20036;-67
2024/03/26 01:40:28;;;;;;;11.18;4.03;;;;;;;6.91;88.80;99567.69;5081696;28;20051;-67
2024/03/26 01:43:15;;;;;;;11.43;3.70;;;;;;;6.87;89.20;99564.72;5097359;28;20046;-66
2024/03/26 01:46:02;;;;;;;12.45;4.00;;;;;;;6.86;88.66;99559.59;5070140;28;20043;-67
2024/03/26 01:48:51;;;;;;;11.98;4.03;;;;;;;6.83;89.34;99550.94;5092294;28;20522;-66
2024/03/26 01:51:40;;;;;;;11.52;4.40;;;;;;;6.81;89.29;99550.38;5053563;28;20098;-67
2024/03/26 01:54:27;;;;;;;12.05;3.67;;;;;;;6.81;89.20;99544.97;5078372;28;20488;-67
2024/03/26 01:57:14;;;;;;;12.50;3.90;;;;;;;6.79;89.15;99543.63;5061080;28;20044;-67
2024/03/26 02:00:03;;;;;;;11.90;4.22;;;;;;;6.75;90.40;99537.94;5072772;28;20074;-67
2024/03/26 02:02:58;;;;;;;9.05;3.33;;;;;;;6.76;90.11;99536.88;5069812;28;20044;-67
2024/03/26 02:05:45;;;;;;;12.90;4.10;;;;;;;6.78;89.62;99531.16;5052637;28;20051;-67
2024/03/26 02:08:33;;;;;;;7.95;3.50;;;;;;;6.76;89.84;99523.31;5074423;28;20127;-66
2024/03/26 02:11:20;;;;;;;13.10;4.10;;;;;;;6.73;89.15;99523.06;5053047;28;20040;-67
2024/03/26 02:14:07;;;;;;;11.35;3.85;;;;;;;6.66;89.63;99517.91;5078172;28;20572;-67
2024/03/26 02:16:54;;;;;;;15.45;4.15;;;;;;;6.64;89.94;99513.88;5099425;28;20051;-67
2024/03/26 02:19:40;;;;;;;13.32;4.18;;;;;;;6.64;90.43;99516.56;5084186;28;20040;-68
2024/03/26 02:22:27;;;;;;;13.27;3.97;;;;;;;6.68;89.94;99515.75;5085490;28;20393;-67
2024/03/26 02:25:15;;;;;;;11.70;3.85;;;;;;;6.65;90.32;99499.25;5085889;28;20043;-68
2024/03/26 02:28:02;;;;;;;15.23;4.20;;;;;;;6.65;90.48;99500.06;5116748;27;20044;-67
2024/03/26 02:30:48;;;;;;;11.77;3.78;;;;;;;6.69;91.15;99495.75;5098563;28;20071;-67
2024/03/26 02:33:35;;;;;;;11.75;4.03;;;;;;;6.72;89.23;99487.06;5085835;28;20113;-66
2024/03/26 02:36:22;;;;;;;13.32;4.30;;;;;;;6.67;89.22;99489.78;5071994;28;20450;-67
2024/03/26 02:39:09;;;;;;;11.93;4.60;;;;;;;6.60;89.58;99491.97;5100720;28;20075;-67
2024/03/26 02:41:57;;;;;;;11.35;4.20;;;;;;;6.60;89.99;99486.56;5085419;28;20044;-66
2024/03/26 02:44:44;;;;;;;11.82;4.10;;;;;;;6.56;89.58;99485.47;5098814;28;20419;-67
2024/03/26 02:47:31;;;;;;;13.95;4.28;;;;;;;6.56;90.09;99474.66;5083481;28;20044;-67
2024/03/26 02:50:18;;;;;;;10.63;3.88;;;;;;;6.56;89.71;99471.94;5080202;28;20075;-67
2024/03/26 02:53:06;;;;;;;11.70;4.03;;;;;;;6.56;90.08;99469.25;5064433;28;20051;-67
2024/03/26 02:55:53;;;;;;;12.60;3.65;;;;;;;6.61;89.43;99455.69;5083266;28;20550;-67
2024/03/26 02:58:40;;;;;;;13.77;4.90;;;;;;;6.61;88.21;99445.69;5098004;28;20560;-67
2024/03/26 03:01:27;;;;;;;10.13;3.70;;;;;;;6.56;89.11;99448.41;5098627;28;20052;-67
2024/03/26 03:04:14;;;;;;;12.20;4.20;;;;;;;6.57;89.19;99444.63;5070120;28;20059;-67
2024/03/26 03:07:01;;;;;;;11.82;3.90;;;;;;;6.47;89.48;99438.41;5085662;28;20491;-67
2024/03/26 03:09:48;;;;;;;12.68;4.05;;;;;;;6.52;89.53;99430.31;5051656;28;20044;-67
2024/03/26 03:12:35;;;;;;;9.63;3.63;;;;;;;6.49;89.31;99414.59;5065777;28;20048;-67
2024/03/26 03:15:22;;;;;;;10.60;4.30;;;;;;;6.45;89.52;99418.97;5085585;27;20044;-67
2024/03/26 03:18:09;;;;;;;11.07;3.90;;;;;;;6.42;89.32;99416.78;5105105;28;20051;-67
2024/03/26 03:20:56;;;;;;;13.07;3.97;;;;;;;6.39;89.91;99402.72;5099946;28;20457;-67
2024/03/26 03:23:43;;;;;;;11.90;4.28;;;;;;;6.42;90.24;99403.25;5096655;28;20519;-67
2024/03/26 03:26:30;;;;;;;10.77;3.95;;;;;;;6.37;89.47;99391.38;5057870;28;20089;-66
2024/03/26 03:29:17;;;;;;;13.40;4.13;;;;;;;6.37;90.31;99385.97;5063949;28;20090;-67
2024/03/26 03:32:04;;;;;;;10.32;3.95;;;;;;;6.36;90.53;99378.94;5067834;28;20040;-64
2024/03/26 03:34:53;;;;;;;13.20;4.03;;;;;;;6.33;90.36;99379.50;5070904;28;20047;-63
2024/03/26 03:37:39;;;;;;;12.73;4.03;;;;;;;6.33;90.42;99375.97;5061711;28;20085;-67
2024/03/26 03:40:26;;;;;;;12.23;3.85;;;;;;;6.30;90.31;99371.94;5092238;28;20069;-64
2024/03/26 03:43:14;;;;;;;11.07;3.85;;;;;;;6.29;90.68;99372.19;5116269;28;20055;-64
2024/03/26 03:46:02;;;;;;;9.13;3.80;;;;;;;6.25;90.67;99366.50;5088653;28;20075;-63
2024/03/26 03:48:50;;;;;;;10.68;3.95;;;;;;;6.22;91.28;99360.84;5088665;28;20039;-67
2024/03/26 03:51:37;;;;;;;13.48;4.07;;;;;;;6.25;91.12;99361.09;5094092;28;20496;-67
2024/03/26 03:54:24;;;;;;;12.30;4.38;;;;;;;6.20;91.64;99353.00;5064764;28;20040;-66
2024/03/26 03:57:11;;;;;;;10.35;3.78;;;;;;;6.15;91.69;99358.44;5077985;28;20504;-67
2024/03/26 04:00:00;;;;;;;10.88;3.83;;;;;;;6.15;92.00;99363.84;5092442;28;20043;-68
2024/03/26 04:02:47;;;;;;;11.35;3.97;;;;;;;6.21;92.06;99348.44;5097032;28;20515;-67
2024/03/26 04:05:38;;;;;;;10.50;4.05;;;;;;;6.22;91.54;99352.75;5111367;27;20059;-67
2024/03/26 04:08:25;;;;;;;10.40;4.30;;;;;;;6.18;92.00;99347.06;5064012;28;20395;-67
2024/03/26 04:11:12;;;;;;;13.10;4.03;;;;;;;6.17;91.82;99342.75;5081595;28;20075;-67
2024/03/26 04:13:59;;;;;;;12.60;3.72;;;;;;;6.14;92.07;99338.69;5098262;28;20035;-67
2024/03/26 04:16:46;;;;;;;10.57;4.05;;;;;;;6.07;92.18;99338.19;5097022;28;20040;-67
2024/03/26 04:19:33;;;;;;;8.85;3.70;;;;;;;6.09;92.35;99324.41;5082209;28;20108;-67
2024/03/26 04:22:20;;;;;;;11.50;3.78;;;;;;;6.11;91.87;99322.19;5084057;28;20082;-67
2024/03/26 04:25:07;;;;;;;10.07;3.50;;;;;;;6.11;92.01;99316.78;5096968;28;20117;-67
2024/03/26 04:27:54;;;;;;;14.32;4.43;;;;;;;6.04;92.21;99311.69;5097440;28;20078;-66
2024/03/26 04:30:41;;;;;;;14.50;3.85;;;;;;;6.03;92.50;99311.97;5098279;28;20036;-66
2024/03/26 04:33:28;;;;;;;12.15;3.92;;;;;;;5.91;93.52;99307.63;5083819;28;20075;-67
2024/03/26 04:36:15;;;;;;;11.13;4.18;;;;;;;5.94;94.04;99307.13;5083623;28;20067;-66
2024/03/26 04:39:03;;;;;;;8.35;3.50;;;;;;;6.02;93.09;99313.88;5049705;28;20078;-67
2024/03/26 04:41:50;;;;;;;8.57;3.70;;;;;;;6.02;93.22;99308.47;5078132;28;20080;-67
2024/03/26 04:44:37;;;;;;;10.32;3.92;;;;;;;6.07;92.88;99304.94;5083047;28;20040;-67
2024/03/26 04:47:25;;;;;;;9.80;3.95;;;;;;;6.03;92.88;99301.94;5083280;28;20097;-67
2024/03/26 04:50:12;;;;;;;12.40;4.18;;;;;;;6.01;93.17;99309.53;5081417;28;20138;-67
2024/03/26 04:52:59;;;;;;;9.23;3.95;;;;;;;5.96;93.50;99299.56;5096603;28;20055;-66
2024/03/26 04:55:46;;;;;;;15.93;4.50;;;;;;;5.92;93.93;99297.66;5082323;28;20419;-67
2024/03/26 04:58:33;;;;;;;10.82;4.13;;;;;;;5.86;94.58;99298.75;5097449;28;20044;-67
2024/03/26 05:01:20;;;;;;;14.70;4.70;;;;;;;5.86;94.67;99304.94;5078264;28;20449;-67
2024/03/26 05:04:07;;;;;;;11.98;4.15;;;;;;;5.82;95.04;99300.38;5055128;28;20046;-66
2024/03/26 05:06:54;;;;;;;7.85;3.67;;;;;;;5.82;95.98;99298.50;5082187;28;20040;-67
2024/03/26 05:09:41;;;;;;;10.70;4.38;;;;;;;5.86;95.08;99299.53;5094449;28;20101;-67
2024/03/26 05:12:28;;;;;;;13.25;4.10;;;;;;;5.83;95.16;99302.81;5064297;28;20128;-67
2024/03/26 05:15:15;;;;;;;13.18;3.80;;;;;;;5.79;95.49;99296.31;5062860;28;20062;-67
2024/03/26 05:18:02;;;;;;;12.18;4.10;;;;;;;5.76;95.75;99289.56;5084236;28;20086;-67
2024/03/26 05:20:49;;;;;;;12.38;4.20;;;;;;;5.73;96.24;99289.31;5071494;28;20048;-68
2024/03/26 05:23:36;;;;;;;10.25;3.60;;;;;;;5.69;96.25;99288.25;5101507;28;20052;-67
2024/03/26 05:26:23;;;;;;;12.55;4.35;;;;;;;5.66;96.68;99283.38;5086938;28;20529;-66
2024/03/26 05:29:10;;;;;;;10.98;4.00;;;;;;;5.60;97.21;99284.47;5073771;28;20071;-67
2024/03/26 05:31:57;;;;;;;11.45;3.67;;;;;;;5.61;97.47;99288.81;5083629;28;20115;-67
2024/03/26 05:34:44;;;;;;;12.05;4.50;;;;;;;5.61;97.39;99286.91;5086758;28;20083;-66
2024/03/26 05:37:31;;;;;;;10.40;4.10;;;;;;;5.58;97.74;99286.63;5086745;28;20122;-66
2024/03/26 05:40:18;;;;;;;9.25;3.70;;;;;;;5.61;97.25;99280.69;5106151;27;20043;-66
2024/03/26 05:43:05;;;;;;;12.25;4.10;;;;;;;5.61;97.60;99280.69;5097521;27;20097;-66
2024/03/26 05:45:52;;;;;;;11.57;4.13;;;;;;;5.60;97.63;99285.28;5120640;27;20067;-66
2024/03/26 05:48:39;;;;;;;12.02;4.47;;;;;;;5.60;98.23;99279.06;5120591;27;20079;-67
2024/03/26 05:51:27;;;;;;;9.93;3.88;;;;;;;5.62;97.94;99282.31;5067751;28;20520;-67
2024/03/26 05:54:14;;;;;;;12.00;3.90;;;;;;;5.62;97.53;99276.91;5080140;28;20048;-67
2024/03/26 05:57:01;;;;;;;11.23;4.10;;;;;;;5.63;97.62;99273.09;5079599;28;20138;-67
2024/03/26 05:59:48;;;;;;;9.15;3.78;;;;;;;5.62;97.89;99266.09;5057260;27;20043;-67
2024/03/26 06:02:35;;;;;;;11.20;3.58;;;;;;;5.63;97.54;99271.25;5120568;27;20388;-66
2024/03/26 06:05:22;;;;;;;10.48;4.03;;;;;;;5.59;97.72;99269.34;5120333;27;20134;-67
2024/03/26 06:08:09;;;;;;;13.07;3.80;;;;;;;5.55;98.34;99261.78;5088001;28;20043;-67
2024/03/26 06:10:57;;;;;;;8.57;3.85;;;;;;;5.56;98.77;99262.59;5054070;28;20043;-68
2024/03/26 06:13:44;;;;;;;11.07;4.28;;;;;;;5.63;98.64;99262.28;5051913;28;20130;-68
2024/03/26 06:16:31;;;;;;;12.10;4.20;;;;;;;5.70;97.87;99262.81;5065552;28;20044;-67
2024/03/26 06:19:18;;;;;;;8.48;3.70;;;;;;;5.71;97.75;99264.47;5087096;28;20514;-67
2024/03/26 06:22:05;;;;;;;10.57;4.10;;;;;;;5.70;98.21;99258.25;5055384;28;20492;-67
2024/03/26 06:24:55;;;;;;;13.35;4.57;;;;;;;5.70;98.57;99254.72;5067576;28;20128;-68
2024/03/26 06:27:42;;;;;;;10.65;4.63;;;;;;;5.72;98.30;99252.56;5072555;28;20569;-68
2024/03/26 06:30:29;;;;;;;11.60;4.07;;;;;;;5.71;98.12;99257.16;5083634;28;20123;-69
2024/03/26 06:33:16;;;;;;;11.38;4.18;;;;;;;5.70;98.83;99257.41;5100209;28;20044;-68
2024/03/26 06:36:04;;;;;;;9.82;4.18;;;;;;;5.71;98.30;99259.06;5070616;28;20128;-68
2024/03/26 06:38:51;;;;;;;10.70;4.18;;;;;;;5.68;98.49;99265.00;5070654;27;20051;-68
2024/03/26 06:41:38;;;;;;;12.70;3.97;;;;;;;5.68;98.97;99263.13;5078835;28;20093;-70
2024/03/26 06:44:25;;;;;;;11.32;4.57;;;;;;;5.72;99.40;99266.06;5090821;28;20492;-68
2024/03/26 06:47:12;;;;;;;12.23;4.35;;;;;;;5.77;99.23;99255.25;5085031;28;20048;-68
2024/03/26 06:49:59;;;;;;;10.27;4.18;;;;;;;5.81;98.63;99250.91;5058793;28;20407;-68
2024/03/26 06:52:47;;;;;;;10.10;4.15;;;;;;;5.81;98.98;99256.31;5099621;28;20047;-68
2024/03/26 06:55:35;;;;;;;14.40;4.22;;;;;;;5.83;98.80;99253.34;5085695;28;20449;-68
2024/03/26 06:58:22;;;;;;;10.68;3.85;;;;;;;5.85;98.98;99260.09;5075023;28;20468;-68
2024/03/26 07:01:10;;;;;;;11.80;4.28;;;;;;;5.88;99.19;99259.53;4401207;27;10000031;-68
2024/03/26 07:03:57;;;;;;;9.95;3.92;;;;;;;5.87;99.52;99252.53;5082818;28;20048;-67
2024/03/26 07:06:45;;;;;;;14.10;4.13;;;;;;;5.90;99.91;99264.69;5114433;27;20043;-67
2024/03/26 07:09:32;;;;;;;10.65;4.13;;;;;;;5.95;100.00;99260.09;5115894;27;20077;-66
2024/03/26 07:12:19;;;;;;;10.57;4.00;;;;;;;5.97;99.89;99260.63;5099219;27;20557;-68
2024/03/26 07:15:06;;;;;;;14.77;4.63;;;;;;;6.05;99.55;99253.03;5090014;28;20048;-68
2024/03/26 07:17:53;;;;;;;13.00;4.53;;;;;;;6.04;99.58;99246.81;5075386;27;20553;-69
2024/03/26 07:20:40;;;;;;;12.82;4.15;;;;;;;6.05;99.83;99244.91;5101864;27;20101;-67
2024/03/26 07:23:27;;;;;;;11.98;4.10;;;;;;;6.11;99.77;99243.78;5085223;28;20522;-67
2024/03/26 07:26:14;;;;;;;22.63;6.10;;;;;;;6.25;100.00;99236.69;5068949;28;20051;-68
2024/03/26 07:29:01;;;;;;;9.18;3.65;;;;;;;6.44;100.00;99238.75;5077075;28;20048;-67
2024/03/26 07:31:48;;;;;;;7.93;3.35;;;;;;;6.42;99.29;99225.50;5066035;28;20071;-67
2024/03/26 07:34:35;;;;;;;8.82;3.78;;;;;;;6.40;99.16;99216.88;5070736;28;20089;-66
2024/03/26 07:37:23;;;;;;;9.23;3.53;;;;;;;6.40;99.06;99222.28;5063763;28;20450;-67
2024/03/26 07:40:10;;;;;;;8.90;3.83;;;;;;;6.42;99.83;99219.28;5051819;28;20093;-67
2024/03/26 07:42:57;;;;;;;11.52;3.65;;;;;;;6.46;99.61;99214.94;5068881;27;20040;-67
2024/03/26 07:45:44;;;;;;;8.50;3.63;;;;;;;6.47;99.20;99219.25;5051140;28;20508;-68
2024/03/26 07:48:31;;;;;;;7.53;3.53;;;;;;;6.47;99.23;99211.16;5103164;28;20047;-65
2024/03/26 07:51:18;;;;;;;8.82;3.70;;;;;;;6.49;98.48;99215.19;5112317;28;20058;-66
2024/03/26 07:54:05;;;;;;;10.55;3.55;;;;;;;6.53;99.14;99207.31;5114867;28;20056;-61
2024/03/26 07:56:52;;;;;;;10.40;3.40;;;;;;;6.56;98.78;99204.84;5095962;28;20086;-64
2024/03/26 07:59:39;;;;;;;8.07;3.40;;;;;;;6.59;99.40;99198.91;5129115;27;20048;-67
2024/03/26 08:02:26;;;;;;;8.32;3.30;;;;;;;6.63;99.37;99195.63;5121484;27;20567;-66
2024/03/26 08:05:13;;;;;;;6.97;3.28;;;;;;;6.65;98.24;99202.38;5118264;27;20163;-65
2024/03/26 08:08:00;;;;;;;12.65;4.28;;;;;;;6.73;100.00;99199.03;5135520;27;20046;-63
2024/03/26 08:10:47;;;;;;;9.13;3.25;;;;;;;6.77;99.22;99194.69;5109223;28;20067;-66
2024/03/26 08:13:34;;;;;;;9.38;3.55;;;;;;;6.83;98.59;99196.28;5082664;28;20039;-67
2024/03/26 08:16:21;;;;;;;9.55;3.63;;;;;;;6.86;98.86;99186.78;5077586;28;20101;-67
2024/03/26 08:19:09;;;;;;;10.23;3.97;;;;;;;6.90;97.32;99187.00;5081413;27;20051;-68
2024/03/26 08:21:57;;;;;;;8.90;3.42;;;;;;;6.89;97.62;99178.09;5097594;28;20063;-67
2024/03/26 08:24:44;;;;;;;10.73;3.53;;;;;;;6.89;97.71;99174.56;5097221;28;20048;-68
2024/03/26 08:27:33;;;;;;;9.73;3.85;;;;;;;6.88;98.35;99178.34;5098108;27;20137;-67
2024/03/26 08:30:21;;;;;;;5.75;3.20;;;;;;;6.92;98.31;99174.00;5077085;28;20157;-68
2024/03/26 08:33:08;;;;;;;8.60;3.80;;;;;;;6.93;96.30;99170.22;5052124;28;20071;-67
2024/03/26 08:35:55;;;;;;;9.52;3.72;;;;;;;6.92;96.57;99163.97;5077675;28;20094;-66
2024/03/26 08:38:42;;;;;;;10.15;3.88;;;;;;;6.95;97.40;99174.25;5081566;28;20040;-68
2024/03/26 08:41:29;;;;;;;8.07;3.63;;;;;;;6.98;97.41;99167.47;5071012;28;20040;-68
2024/03/26 08:44:16;;;;;;;7.53;3.42;;;;;;;7.02;98.03;99169.31;5097257;28;20105;-67
2024/03/26 08:47:03;;;;;;;7.18;3.72;;;;;;;7.06;97.92;99158.72;5077350;28;20071;-68
2024/03/26 08:49:50;;;;;;;9.52;3.47;;;;;;;7.10;97.40;99150.84;5083681;28;20035;-68
2024/03/26 08:52:37;;;;;;;8.90;3.63;;;;;;;7.12;97.60;99146.75;5097973;28;20050;-67
2024/03/26 08:55:24;;;;;;;13.38;4.03;;;;;;;7.18;97.56;99144.78;5097241;28;20044;-68
2024/03/26 08:58:11;;;;;;;8.25;3.45;;;;;;;7.20;96.43;99143.41;5105653;28;20066;-68
2024/03/26 09:00:58;;;;;;;9.90;3.90;;;;;;;7.21;97.07;99139.59;5117507;28;20461;-68
2024/03/26 09:03:46;;;;;;;9.02;3.60;;;;;;;7.23;97.48;99147.44;5104466;28;20051;-68
2024/03/26 09:06:33;;;;;;;6.18;2.90;;;;;;;7.26;96.85;99146.84;5101627;28;20560;-67
2024/03/26 09:09:19;;;;;;;12.65;3.83;;;;;;;7.30;95.91;99147.09;5082144;28;20074;-67
2024/03/26 09:12:06;;;;;;;8.57;3.30;;;;;;;7.33;97.13;99157.34;5083447;28;20488;-67
2024/03/26 09:14:53;;;;;;;7.65;3.55;;;;;;;7.34;96.60;99148.94;5096311;28;20197;-66
2024/03/26 09:17:40;;;;;;;9.15;3.50;;;;;;;7.37;97.34;99147.56;5088713;28;20039;-67
2024/03/26 09:20:27;;;;;;;8.45;3.85;;;;;;;7.38;97.75;99141.03;5117402;28;20072;-67
2024/03/26 09:23:14;;;;;;;11.65;3.70;;;;;;;7.41;98.01;99137.78;5103227;28;20090;-65
2024/03/26 09:26:03;;;;;;;7.05;3.63;;;;;;;7.45;97.98;99139.59;5083023;28;20079;-67
2024/03/26 09:28:50;;;;;;;8.75;3.97;;;;;;;7.49;97.57;99131.69;5059226;28;20067;-67
2024/03/26 09:31:37;;;;;;;8.27;3.58;;;;;;;7.52;97.65;99128.41;5063093;28;20415;-67
2024/03/26 09:34:24;;;;;;;9.68;3.60;;;;;;;7.54;96.56;99131.63;5049130;28;20445;-67
2024/03/26 09:37:11;;;;;;;8.25;3.70;;;;;;;7.58;96.97;99129.97;5072679;28;20039;-67
2024/03/26 09:39:58;;;;;;;9.07;3.80;;;;;;;7.61;97.23;99120.44;5117755;28;20529;-67
2024/03/26 09:42:45;;;;;;;8.60;3.80;;;;;;;7.61;96.61;99123.16;5096731;28;20468;-67
2024/03/26 09:45:34;;;;;;;8.75;3.60;;;;;;;7.62;97.70;99122.84;5096638;28;20101;-67
2024/03/26 09:48:21;;;;;;;12.50;3.78;;;;;;;7.64;97.83;99115.25;5083445;28;20515;-66
2024/03/26 09:51:12;;;;;;;11.00;3.88;;;;;;;7.66;98.00;99102.22;5082452;28;20079;-68
2024/03/26 09:54:00;;;;;;;10.90;4.00;;;;;;;7.66;98.12;99102.22;5095474;28;20047;-66
2024/03/26 09:56:47;;;;;;;7.25;3.50;;;;;;;7.68;97.99;99104.63;5084233;28;20039;-66
2024/03/26 09:59:34;;;;;;;7.25;3.42;;;;;;;7.71;98.11;99097.84;5087664;28;20059;-67
2024/03/26 10:02:22;;;;;;;8.25;3.88;;;;;;;7.73;97.85;99087.50;5088447;28;20522;-66
2024/03/26 10:05:16;;;;;;;11.93;4.50;;;;;;;7.76;97.53;99095.03;5117191;27;20051;-68
2024/03/26 10:08:03;;;;;;;11.60;4.07;;;;;;;7.77;97.64;99085.81;5086009;28;20046;-66
2024/03/26 10:10:50;;;;;;;9.98;3.97;;;;;;;7.79;97.63;99089.88;5085622;28;20082;-68
2024/03/26 10:13:37;;;;;;;12.07;3.83;;;;;;;7.81;97.28;99086.84;5099652;28;20113;-69
2024/03/26 10:16:24;;;;;;;8.70;3.67;;;;;;;7.84;97.53;99086.25;5103044;27;20431;-67
2024/03/26 10:19:12;;;;;;;14.60;4.25;;;;;;;7.88;98.76;99087.28;5095407;28;20121;-66
2024/03/26 10:21:59;;;;;;;10.32;4.30;;;;;;;7.90;98.30;99088.59;5080881;28;20044;-67
2024/03/26 10:24:48;;;;;;;8.18;3.60;;;;;;;7.92;98.91;99090.22;5081033;28;20075;-66
2024/03/26 10:27:35;;;;;;;7.50;3.60;;;;;;;7.94;97.96;99091.56;5086295;28;20071;-67
2024/03/26 10:30:22;;;;;;;10.57;4.13;;;;;;;7.97;97.28;99088.25;5084065;28;20043;-67
2024/03/26 10:33:10;;;;;;;8.43;3.70;;;;;;;8.02;97.89;99088.16;5082684;28;20047;-67
2024/03/26 10:35:59;;;;;;;10.32;4.00;;;;;;;8.05;96.93;99081.34;5086566;27;20047;-66
2024/03/26 10:38:47;;;;;;;10.70;4.25;;;;;;;8.04;97.23;99080.53;5099996;27;20098;-67
2024/03/26 10:41:35;;;;;;;11.05;4.35;;;;;;;8.04;98.00;99069.69;5071946;28;20048;-67
2024/03/26 10:44:22;;;;;;;10.65;4.82;;;;;;;8.07;97.82;99066.38;5064639;28;20072;-68
2024/03/26 10:47:09;;;;;;;10.05;4.10;;;;;;;8.07;97.92;99073.72;5111990;27;20054;-68
2024/03/26 10:49:56;;;;;;;14.27;4.32;;;;;;;8.06;98.71;99066.69;5108145;28;20520;-67
2024/03/26 10:52:44;;;;;;;9.05;4.75;;;;;;;8.08;98.73;99061.75;5098685;28;20082;-67
2024/03/26 10:55:34;;;;;;;13.63;4.15;;;;;;;8.11;98.51;99053.84;5085632;28;20134;-66
2024/03/26 10:58:21;;;;;;;7.93;3.90;;;;;;;8.16;98.57;99063.03;5078402;28;20435;-67
2024/03/26 11:01:09;;;;;;;11.23;4.60;;;;;;;8.19;99.13;99048.84;5071511;28;20067;-66
2024/03/26 11:03:57;;;;;;;9.38;4.13;;;;;;;8.25;99.11;99044.94;5049742;28;20044;-67
2024/03/26 11:06:44;;;;;;;9.80;4.45;;;;;;;8.29;99.37;99048.69;5070569;28;20419;-67
2024/03/26 11:09:31;;;;;;;7.95;3.95;;;;;;;8.32;99.31;99034.53;5064541;28;20055;-65
2024/03/26 11:12:22;;;;;;;8.75;4.20;;;;;;;8.36;98.88;99043.69;5077025;28;20055;-66
2024/03/26 11:15:15;;;;;;;10.60;4.50;;;;;;;8.41;99.00;99030.06;5063039;28;20044;-67
2024/03/26 11:18:03;;;;;;;7.63;3.70;;;;;;;8.47;98.67;99031.59;5057049;28;20045;-66
2024/03/26 11:20:50;;;;;;;10.10;4.38;;;;;;;8.50;99.50;99028.28;5069220;28;20052;-67
2024/03/26 11:23:42;;;;;;;9.38;4.20;;;;;;;8.55;100.00;99021.16;5050570;28;20459;-66
2024/03/26 11:26:30;;;;;;;10.98;4.22;;;;;;;8.58;99.77;99017.84;5093952;28;20075;-67
2024/03/26 11:29:18;;;;;;;12.77;4.18;;;;;;;8.62;99.67;99013.44;5083549;28;20056;-66
2024/03/26 11:32:08;;;;;;;9.88;4.20;;;;;;;8.65;99.60;99010.09;5098346;28;20051;-68
2024/03/26 11:35:17;;;;;;;9.95;4.35;;;;;;;8.67;99.76;99010.63;5061134;28;20093;-67
2024/03/26 11:38:06;;;;;;;9.10;4.40;;;;;;;8.72;100.00;99007.81;5048041;28;20471;-67
2024/03/26 11:40:54;;;;;;;10.55;4.15;;;;;;;8.81;99.93;99006.00;5062515;28;20132;-67
2024/03/26 11:43:41;;;;;;;17.00;4.75;;;;;;;8.85;99.35;98993.44;5076454;28;20048;-66
2024/03/26 11:46:28;;;;;;;12.48;4.75;;;;;;;8.85;100.00;98996.16;5064393;28;20040;-67
2024/03/26 11:49:15;;;;;;;12.60;4.60;;;;;;;8.86;100.00;99002.38;5057221;28;20132;-66
2024/03/26 11:52:02;;;;;;;9.13;4.20;;;;;;;8.87;100.00;99003.97;5055413;28;20040;-66
2024/03/26 11:54:50;;;;;;;9.50;4.20;;;;;;;8.88;99.87;98987.41;5060946;28;20342;-66
2024/03/26 11:57:40;;;;;;;12.85;4.10;;;;;;;8.91;99.22;98988.69;5098500;28;20101;-66
2024/03/26 12:00:27;;;;;;;11.02;4.32;;;;;;;8.94;98.88;98988.88;5096928;28;20109;-67
2024/03/26 12:03:15;;;;;;;10.68;3.75;;;;;;;8.97;99.02;98987.47;5096577;28;20531;-66
2024/03/26 12:06:02;;;;;;;10.77;3.60;;;;;;;9.00;99.25;98991.53;5096382;28;20113;-67
2024/03/26 12:08:54;;;;;;;10.43;4.10;;;;;;;9.02;99.84;98978.44;5096791;28;20143;-66
2024/03/26 12:11:42;;;;;;;9.27;4.10;;;;;;;9.04;100.00;98981.66;5082348;28;20076;-66
2024/03/26 12:14:29;;;;;;;12.15;4.47;;;;;;;9.08;100.00;98971.78;5095883;28;20043;-66
2024/03/26 12:17:16;;;;;;;14.57;4.38;;;;;;;9.14;100.00;98962.44;5063988;28;20048;-66
2024/03/26 12:20:06;;;;;;;10.65;4.05;;;;;;;9.17;100.00;98964.53;5070516;28;20181;-66
2024/03/26 12:22:56;;;;;;;11.52;4.10;;;;;;;9.20;100.00;98957.69;5082506;28;20223;-66
2024/03/26 12:25:44;;;;;;;13.60;3.80;;;;;;;9.22;100.00;98959.00;5082488;28;20075;-67
2024/03/26 12:28:32;;;;;;;7.70;3.42;;;;;;;9.26;100.00;98960.00;5077156;28;20069;-67
2024/03/26 12:31:19;;;;;;;9.43;3.78;;;;;;;9.28;100.00;98957.75;5053281;28;20043;-66
2024/03/26 12:34:13;;;;;;;7.78;3.33;;;;;;;9.30;100.00;98958.25;5068758;28;20051;-66
2024/03/26 12:37:01;;;;;;;11.48;4.10;;;;;;;9.34;100.00;98953.03;5077163;28;20044;-67
2024/03/26 12:39:48;;;;;;;13.25;3.92;;;;;;;9.37;100.00;98946.97;5062144;28;20040;-67
2024/03/26 12:42:35;;;;;;;9.70;3.80;;;;;;;9.41;100.00;98942.53;5062806;28;20147;-67
2024/03/26 12:45:22;;;;;;;12.45;4.05;;;;;;;9.43;100.00;98929.47;5059604;28;20059;-67
2024/03/26 12:48:09;;;;;;;11.95;3.47;;;;;;;9.44;100.00;98933.78;5094654;28;20039;-67
2024/03/26 12:50:59;;;;;;;10.52;3.88;;;;;;;9.48;100.00;98933.97;5091095;28;20416;-67
2024/03/26 12:53:46;;;;;;;8.35;3.50;;;;;;;9.51;100.00;98941.50;5094109;28;20047;-67
2024/03/26 12:56:37;;;;;;;9.35;3.63;;;;;;;9.52;100.00;98932.22;5070161;28;20408;-67
2024/03/26 12:59:25;;;;;;;12.27;4.25;;;;;;;9.54;100.00;98930.81;5049934;28;20436;-65
2024/03/26 13:02:21;;;;;;;8.65;3.47;;;;;;;9.58;100.00;98925.56;5052232;28;20047;-66
2024/03/26 13:05:08;;;;;;;13.20;4.45;;;;;;;9.60;100.00;98926.88;5091858;28;20147;-66
2024/03/26 13:08:04;;;;;;;;;;;;;;;9.66;100.00;98924.03;5072736;28;20216;-66
2024/03/26 13:10:51;;;;;;;9.98;4.10;;;;;;;9.70;100.00;98919.59;5098055;28;19950;-66